sensor_id;sensor_type;location;lat;lon;timestamp;temperature;humidity
1301;DHT22;59099;48.806;9.160;2022-10-19T00:01:57;13.40;99.90
1301;DHT22;59099;48.806;9.160;2022-10-19T00:04:22;13.30;99.90
1301;DHT22;59099;48.806;9.160;2022-10-19T00:06:48;13.30;99.90
1301;DHT22;59099;48.806;9.160;2022-10-19T00:09:17;13.30;99.90
1301;DHT22;59099;48.806;9.160;2022-10-19T00:11:45;13.20;99.90
1301;DHT22;59099;48.806;9.160;2022-10-19T00:16:46;13.20;99.90
1301;DHT22;59099;48.806;9.160;2022-10-19T00:22:12;13.20;99.90
1301;DHT22;59099;48.806;9.160;2022-10-19T00:24:37;13.10;99.90
1301;DHT22;59099;48.806;9.160;2022-10-19T00:27:03;13.10;99.90
1301;DHT22;59099;48.806;9.160;2022-10-19T00:29:31;13.00;99.90
1301;DHT22;59099;48.806;9.160;2022-10-19T00:31:56;12.90;99.90
1301;DHT22;59099;48.806;9.160;2022-10-19T00:34:22;13.00;99.90
1301;DHT22;59099;48.806;9.160;2022-10-19T00:36:50;13.00;99.90
1301;DHT22;59099;48.806;9.160;2022-10-19T00:39:22;13.00;99.90
1301;DHT22;59099;48.806;9.160;2022-10-19T00:41:48;13.00;99.90
1301;DHT22;59099;48.806;9.160;2022-10-19T00:46:45;13.00;99.90
1301;DHT22;59099;48.806;9.160;2022-10-19T00:49:17;13.10;99.90
1301;DHT22;59099;48.806;9.160;2022-10-19T00:51:48;13.20;99.90
1301;DHT22;59099;48.806;9.160;2022-10-19T00:54:14;13.20;99.90
1301;DHT22;59099;48.806;9.160;2022-10-19T00:56:42;13.10;99.90
1301;DHT22;59099;48.806;9.160;2022-10-19T00:59:09;13.00;99.90
1301;DHT22;59099;48.806;9.160;2022-10-19T01:01:35;12.90;99.90
1301;DHT22;59099;48.806;9.160;2022-10-19T01:04:03;12.90;99.90
1301;DHT22;59099;48.806;9.160;2022-10-19T01:06:29;12.80;99.90
1301;DHT22;59099;48.806;9.160;2022-10-19T01:08:55;12.90;99.90
1301;DHT22;59099;48.806;9.160;2022-10-19T01:24:43;13.00;99.90
1301;DHT22;59099;48.806;9.160;2022-10-19T01:30:51;13.20;99.90
1301;DHT22;59099;48.806;9.160;2022-10-19T01:33:44;13.20;99.90
1301;DHT22;59099;48.806;9.160;2022-10-19T01:39:22;13.20;99.90
1301;DHT22;59099;48.806;9.160;2022-10-19T01:42:58;13.20;99.90
1301;DHT22;59099;48.806;9.160;2022-10-19T01:45:03;13.30;99.90
1301;DHT22;59099;48.806;9.160;2022-10-19T01:50:37;13.50;99.90
1301;DHT22;59099;48.806;9.160;2022-10-19T01:53:07;13.50;99.90
1301;DHT22;59099;48.806;9.160;2022-10-19T01:55:37;13.60;99.90
1301;DHT22;59099;48.806;9.160;2022-10-19T01:58:07;13.70;99.90
1301;DHT22;59099;48.806;9.160;2022-10-19T02:00:36;13.80;99.90
1301;DHT22;59099;48.806;9.160;2022-10-19T02:03:06;13.80;99.90
1301;DHT22;59099;48.806;9.160;2022-10-19T02:05:34;13.80;99.90
1301;DHT22;59099;48.806;9.160;2022-10-19T02:08:05;13.70;99.90
1301;DHT22;59099;48.806;9.160;2022-10-19T02:10:33;13.70;99.90
1301;DHT22;59099;48.806;9.160;2022-10-19T02:13:02;13.70;99.90
1301;DHT22;59099;48.806;9.160;2022-10-19T02:15:31;13.70;99.90
1301;DHT22;59099;48.806;9.160;2022-10-19T02:18:01;13.80;99.90
1301;DHT22;59099;48.806;9.160;2022-10-19T02:20:27;13.90;99.90
1301;DHT22;59099;48.806;9.160;2022-10-19T02:22:53;13.90;99.90
1301;DHT22;59099;48.806;9.160;2022-10-19T02:25:20;13.80;99.90
1301;DHT22;59099;48.806;9.160;2022-10-19T02:27:46;13.70;99.90
1301;DHT22;59099;48.806;9.160;2022-10-19T02:30:15;13.70;99.90
1301;DHT22;59099;48.806;9.160;2022-10-19T02:32:42;13.80;99.90
1301;DHT22;59099;48.806;9.160;2022-10-19T02:35:11;14.00;99.90
1301;DHT22;59099;48.806;9.160;2022-10-19T02:37:38;14.00;99.90
1301;DHT22;59099;48.806;9.160;2022-10-19T02:40:05;14.00;99.90
1301;DHT22;59099;48.806;9.160;2022-10-19T02:42:55;14.10;99.90
1301;DHT22;59099;48.806;9.160;2022-10-19T02:45:29;14.00;99.90
1301;DHT22;59099;48.806;9.160;2022-10-19T02:48:02;14.00;99.90
1301;DHT22;59099;48.806;9.160;2022-10-19T02:50:29;13.90;99.90
1301;DHT22;59099;48.806;9.160;2022-10-19T02:52:58;14.00;99.90
1301;DHT22;59099;48.806;9.160;2022-10-19T02:55:24;14.00;99.90
1301;DHT22;59099;48.806;9.160;2022-10-19T02:57:53;14.00;99.90
1301;DHT22;59099;48.806;9.160;2022-10-19T03:00:19;14.00;99.90
1301;DHT22;59099;48.806;9.160;2022-10-19T03:02:45;14.10;99.90
1301;DHT22;59099;48.806;9.160;2022-10-19T03:05:11;14.20;99.90
1301;DHT22;59099;48.806;9.160;2022-10-19T03:07:39;14.30;99.90
1301;DHT22;59099;48.806;9.160;2022-10-19T03:10:09;14.30;99.90
1301;DHT22;59099;48.806;9.160;2022-10-19T03:12:35;14.40;99.90
1301;DHT22;59099;48.806;9.160;2022-10-19T03:15:01;14.40;99.90
1301;DHT22;59099;48.806;9.160;2022-10-19T03:17:27;14.40;99.90
1301;DHT22;59099;48.806;9.160;2022-10-19T03:19:52;14.50;99.90
1301;DHT22;59099;48.806;9.160;2022-10-19T03:22:20;14.60;99.90
1301;DHT22;59099;48.806;9.160;2022-10-19T03:24:46;14.60;99.90
1301;DHT22;59099;48.806;9.160;2022-10-19T03:27:12;14.70;99.90
1301;DHT22;59099;48.806;9.160;2022-10-19T03:29:39;14.70;99.90
1301;DHT22;59099;48.806;9.160;2022-10-19T03:32:05;14.80;99.90
1301;DHT22;59099;48.806;9.160;2022-10-19T03:34:31;14.80;99.90
1301;DHT22;59099;48.806;9.160;2022-10-19T03:36:57;14.80;99.90
1301;DHT22;59099;48.806;9.160;2022-10-19T03:39:27;14.70;99.90
1301;DHT22;59099;48.806;9.160;2022-10-19T03:41:52;14.70;99.90
1301;DHT22;59099;48.806;9.160;2022-10-19T03:44:18;14.70;99.90
1301;DHT22;59099;48.806;9.160;2022-10-19T03:46:47;14.60;99.90
1301;DHT22;59099;48.806;9.160;2022-10-19T03:49:13;14.70;99.90
1301;DHT22;59099;48.806;9.160;2022-10-19T03:51:39;14.70;99.90
1301;DHT22;59099;48.806;9.160;2022-10-19T03:54:10;14.70;99.90
1301;DHT22;59099;48.806;9.160;2022-10-19T03:56:37;14.60;99.90
1301;DHT22;59099;48.806;9.160;2022-10-19T03:59:04;14.70;99.90
1301;DHT22;59099;48.806;9.160;2022-10-19T04:01:33;14.70;99.90
1301;DHT22;59099;48.806;9.160;2022-10-19T04:04:01;14.80;99.90
1301;DHT22;59099;48.806;9.160;2022-10-19T04:06:34;14.80;99.90
1301;DHT22;59099;48.806;9.160;2022-10-19T04:09:01;14.90;99.90
1301;DHT22;59099;48.806;9.160;2022-10-19T04:11:30;14.90;99.90
1301;DHT22;59099;48.806;9.160;2022-10-19T04:14:00;14.90;99.90
1301;DHT22;59099;48.806;9.160;2022-10-19T04:16:27;14.80;99.90
1301;DHT22;59099;48.806;9.160;2022-10-19T04:18:53;14.70;99.90
1301;DHT22;59099;48.806;9.160;2022-10-19T04:24:17;14.70;99.90
1301;DHT22;59099;48.806;9.160;2022-10-19T04:26:45;14.70;99.90
1301;DHT22;59099;48.806;9.160;2022-10-19T04:29:12;14.60;99.90
1301;DHT22;59099;48.806;9.160;2022-10-19T04:31:38;14.60;99.90
1301;DHT22;59099;48.806;9.160;2022-10-19T04:34:05;14.70;99.90
1301;DHT22;59099;48.806;9.160;2022-10-19T04:36:31;14.70;99.90
1301;DHT22;59099;48.806;9.160;2022-10-19T04:38:58;14.80;99.90
1301;DHT22;59099;48.806;9.160;2022-10-19T04:41:24;14.80;99.90
1301;DHT22;59099;48.806;9.160;2022-10-19T04:43:58;14.80;99.90
1301;DHT22;59099;48.806;9.160;2022-10-19T04:46:25;14.80;99.90
1301;DHT22;59099;48.806;9.160;2022-10-19T04:48:51;14.80;99.90
1301;DHT22;59099;48.806;9.160;2022-10-19T04:51:19;14.80;99.90
1301;DHT22;59099;48.806;9.160;2022-10-19T04:53:46;14.90;99.90
1301;DHT22;59099;48.806;9.160;2022-10-19T04:56:18;14.90;99.90
1301;DHT22;59099;48.806;9.160;2022-10-19T04:58:45;14.90;99.90
1301;DHT22;59099;48.806;9.160;2022-10-19T05:01:15;15.00;99.90
1301;DHT22;59099;48.806;9.160;2022-10-19T05:03:41;14.90;99.90
1301;DHT22;59099;48.806;9.160;2022-10-19T05:06:10;14.90;99.90
1301;DHT22;59099;48.806;9.160;2022-10-19T05:08:37;14.90;99.90
1301;DHT22;59099;48.806;9.160;2022-10-19T05:11:09;15.00;99.90
1301;DHT22;59099;48.806;9.160;2022-10-19T05:13:36;15.00;99.90
1301;DHT22;59099;48.806;9.160;2022-10-19T05:16:03;15.00;99.90
1301;DHT22;59099;48.806;9.160;2022-10-19T05:18:30;15.00;99.90
1301;DHT22;59099;48.806;9.160;2022-10-19T05:23:28;15.00;99.90
1301;DHT22;59099;48.806;9.160;2022-10-19T05:28:31;15.10;99.90
1301;DHT22;59099;48.806;9.160;2022-10-19T05:31:13;15.20;99.90
1301;DHT22;59099;48.806;9.160;2022-10-19T05:33:40;15.20;99.90
1301;DHT22;59099;48.806;9.160;2022-10-19T05:38:42;15.20;99.90
1301;DHT22;59099;48.806;9.160;2022-10-19T05:41:08;15.20;99.90
1301;DHT22;59099;48.806;9.160;2022-10-19T05:43:34;15.20;99.90
1301;DHT22;59099;48.806;9.160;2022-10-19T05:46:06;15.20;99.90
1301;DHT22;59099;48.806;9.160;2022-10-19T05:48:33;15.20;99.90
1301;DHT22;59099;48.806;9.160;2022-10-19T05:51:09;15.20;99.90
1301;DHT22;59099;48.806;9.160;2022-10-19T05:53:35;15.20;99.90
1301;DHT22;59099;48.806;9.160;2022-10-19T05:56:04;15.30;99.90
1301;DHT22;59099;48.806;9.160;2022-10-19T05:58:30;15.20;99.90
1301;DHT22;59099;48.806;9.160;2022-10-19T06:00:58;15.30;99.90
1301;DHT22;59099;48.806;9.160;2022-10-19T06:03:25;15.20;99.90
1301;DHT22;59099;48.806;9.160;2022-10-19T06:05:53;15.20;99.90
1301;DHT22;59099;48.806;9.160;2022-10-19T06:08:20;15.30;99.90
1301;DHT22;59099;48.806;9.160;2022-10-19T06:10:47;15.40;99.90
1301;DHT22;59099;48.806;9.160;2022-10-19T06:13:14;15.40;99.90
1301;DHT22;59099;48.806;9.160;2022-10-19T06:15:40;15.40;99.90
1301;DHT22;59099;48.806;9.160;2022-10-19T06:18:08;15.30;99.90
1301;DHT22;59099;48.806;9.160;2022-10-19T06:20:35;15.30;99.90
1301;DHT22;59099;48.806;9.160;2022-10-19T06:23:01;15.40;99.90
1301;DHT22;59099;48.806;9.160;2022-10-19T06:25:28;15.40;99.90
1301;DHT22;59099;48.806;9.160;2022-10-19T06:27:55;15.50;99.90
1301;DHT22;59099;48.806;9.160;2022-10-19T06:30:20;15.50;99.90
1301;DHT22;59099;48.806;9.160;2022-10-19T06:32:46;15.50;99.90
1301;DHT22;59099;48.806;9.160;2022-10-19T06:35:12;15.60;99.90
1301;DHT22;59099;48.806;9.160;2022-10-19T06:37:37;15.50;99.90
1301;DHT22;59099;48.806;9.160;2022-10-19T06:40:03;15.60;99.90
1301;DHT22;59099;48.806;9.160;2022-10-19T06:42:29;15.60;99.90
1301;DHT22;59099;48.806;9.160;2022-10-19T06:44:55;15.70;99.90
1301;DHT22;59099;48.806;9.160;2022-10-19T06:47:21;15.70;99.90
1301;DHT22;59099;48.806;9.160;2022-10-19T06:49:47;15.70;99.90
1301;DHT22;59099;48.806;9.160;2022-10-19T06:52:13;15.60;99.90
1301;DHT22;59099;48.806;9.160;2022-10-19T06:54:38;15.70;99.90
1301;DHT22;59099;48.806;9.160;2022-10-19T06:57:04;15.70;99.90
1301;DHT22;59099;48.806;9.160;2022-10-19T06:59:32;15.70;99.90
1301;DHT22;59099;48.806;9.160;2022-10-19T07:01:58;15.70;99.90
1301;DHT22;59099;48.806;9.160;2022-10-19T07:04:24;15.80;99.90
1301;DHT22;59099;48.806;9.160;2022-10-19T07:06:50;15.70;99.90
1301;DHT22;59099;48.806;9.160;2022-10-19T07:09:16;15.70;99.90
1301;DHT22;59099;48.806;9.160;2022-10-19T07:11:43;15.60;99.90
1301;DHT22;59099;48.806;9.160;2022-10-19T07:14:09;15.60;99.90
1301;DHT22;59099;48.806;9.160;2022-10-19T07:16:37;15.70;99.90
1301;DHT22;59099;48.806;9.160;2022-10-19T07:19:03;15.70;99.90
1301;DHT22;59099;48.806;9.160;2022-10-19T07:21:32;15.80;99.90
1301;DHT22;59099;48.806;9.160;2022-10-19T07:23:58;15.80;99.90
1301;DHT22;59099;48.806;9.160;2022-10-19T07:26:25;15.80;99.90
1301;DHT22;59099;48.806;9.160;2022-10-19T07:28:58;15.80;99.90
1301;DHT22;59099;48.806;9.160;2022-10-19T07:31:26;15.80;99.90
1301;DHT22;59099;48.806;9.160;2022-10-19T07:33:53;15.80;99.90
1301;DHT22;59099;48.806;9.160;2022-10-19T07:36:21;15.70;99.90
1301;DHT22;59099;48.806;9.160;2022-10-19T07:38:47;15.70;99.90
1301;DHT22;59099;48.806;9.160;2022-10-19T07:41:18;15.70;99.90
1301;DHT22;59099;48.806;9.160;2022-10-19T07:43:46;15.90;99.90
1301;DHT22;59099;48.806;9.160;2022-10-19T07:46:22;16.00;99.90
1301;DHT22;59099;48.806;9.160;2022-10-19T07:48:50;16.10;99.90
1301;DHT22;59099;48.806;9.160;2022-10-19T07:51:17;16.20;99.90
1301;DHT22;59099;48.806;9.160;2022-10-19T07:53:43;16.50;99.90
1301;DHT22;59099;48.806;9.160;2022-10-19T07:56:17;16.60;99.90
1301;DHT22;59099;48.806;9.160;2022-10-19T07:58:45;16.80;99.90
1301;DHT22;59099;48.806;9.160;2022-10-19T08:01:17;16.90;99.90
1301;DHT22;59099;48.806;9.160;2022-10-19T08:03:43;17.10;99.90
1301;DHT22;59099;48.806;9.160;2022-10-19T08:06:12;17.10;99.90
1301;DHT22;59099;48.806;9.160;2022-10-19T08:08:39;17.10;99.90
1301;DHT22;59099;48.806;9.160;2022-10-19T08:11:12;17.20;99.90
1301;DHT22;59099;48.806;9.160;2022-10-19T08:13:39;17.40;99.90
1301;DHT22;59099;48.806;9.160;2022-10-19T08:16:05;17.40;99.90
1301;DHT22;59099;48.806;9.160;2022-10-19T08:18:49;17.50;99.90
1301;DHT22;59099;48.806;9.160;2022-10-19T08:21:16;17.50;99.90
1301;DHT22;59099;48.806;9.160;2022-10-19T08:23:43;17.60;99.90
1301;DHT22;59099;48.806;9.160;2022-10-19T08:26:19;17.70;99.90
1301;DHT22;59099;48.806;9.160;2022-10-19T08:31:49;17.60;99.90
1301;DHT22;59099;48.806;9.160;2022-10-19T08:34:16;17.50;99.90
1301;DHT22;59099;48.806;9.160;2022-10-19T08:36:42;17.40;99.90
1301;DHT22;59099;48.806;9.160;2022-10-19T08:39:08;17.20;99.90
1301;DHT22;59099;48.806;9.160;2022-10-19T08:47:20;17.30;99.90
1301;DHT22;59099;48.806;9.160;2022-10-19T08:49:50;17.30;99.90
1301;DHT22;59099;48.806;9.160;2022-10-19T08:52:23;17.20;99.90
1301;DHT22;59099;48.806;9.160;2022-10-19T08:54:56;17.30;99.90
1301;DHT22;59099;48.806;9.160;2022-10-19T09:00:05;17.30;99.90
1301;DHT22;59099;48.806;9.160;2022-10-19T09:06:09;17.40;99.90
1301;DHT22;59099;48.806;9.160;2022-10-19T09:09:14;17.60;99.90
1301;DHT22;59099;48.806;9.160;2022-10-19T09:15:06;17.50;99.90
1301;DHT22;59099;48.806;9.160;2022-10-19T09:17:45;17.60;99.90
1301;DHT22;59099;48.806;9.160;2022-10-19T09:20:36;17.60;99.90
1301;DHT22;59099;48.806;9.160;2022-10-19T09:25:59;17.50;99.90
1301;DHT22;59099;48.806;9.160;2022-10-19T09:38:14;17.70;99.90
1301;DHT22;59099;48.806;9.160;2022-10-19T09:40:43;17.70;99.90
1301;DHT22;59099;48.806;9.160;2022-10-19T09:43:09;17.70;99.90
1301;DHT22;59099;48.806;9.160;2022-10-19T09:45:54;17.80;99.90
1301;DHT22;59099;48.806;9.160;2022-10-19T09:51:12;17.80;99.90
1301;DHT22;59099;48.806;9.160;2022-10-19T09:53:47;17.60;99.90
1301;DHT22;59099;48.806;9.160;2022-10-19T09:56:28;17.80;99.90
1301;DHT22;59099;48.806;9.160;2022-10-19T09:58:57;17.80;99.90
1301;DHT22;59099;48.806;9.160;2022-10-19T10:04:17;17.60;99.90
1301;DHT22;59099;48.806;9.160;2022-10-19T10:06:46;17.40;99.90
1301;DHT22;59099;48.806;9.160;2022-10-19T10:09:22;17.20;99.90
1301;DHT22;59099;48.806;9.160;2022-10-19T10:11:52;17.10;99.90
1301;DHT22;59099;48.806;9.160;2022-10-19T10:16:54;17.20;99.90
1301;DHT22;59099;48.806;9.160;2022-10-19T10:19:26;17.20;99.90
1301;DHT22;59099;48.806;9.160;2022-10-19T10:21:53;17.30;99.90
1301;DHT22;59099;48.806;9.160;2022-10-19T10:24:24;17.30;99.90
1301;DHT22;59099;48.806;9.160;2022-10-19T10:26:59;17.40;99.90
1301;DHT22;59099;48.806;9.160;2022-10-19T10:29:32;17.40;99.90
1301;DHT22;59099;48.806;9.160;2022-10-19T10:32:05;17.50;99.90
1301;DHT22;59099;48.806;9.160;2022-10-19T10:37:09;17.60;99.90
1301;DHT22;59099;48.806;9.160;2022-10-19T10:39:43;17.60;99.90
1301;DHT22;59099;48.806;9.160;2022-10-19T10:42:16;17.70;99.90
1301;DHT22;59099;48.806;9.160;2022-10-19T10:44:49;17.60;99.90
1301;DHT22;59099;48.806;9.160;2022-10-19T10:47:17;17.70;99.90
1301;DHT22;59099;48.806;9.160;2022-10-19T10:50:01;17.80;99.90
1301;DHT22;59099;48.806;9.160;2022-10-19T10:52:29;17.90;99.90
1301;DHT22;59099;48.806;9.160;2022-10-19T10:57:39;18.10;99.90
1301;DHT22;59099;48.806;9.160;2022-10-19T11:00:18;18.20;99.90
1301;DHT22;59099;48.806;9.160;2022-10-19T11:06:06;18.40;99.90
1301;DHT22;59099;48.806;9.160;2022-10-19T11:08:21;18.40;99.90
1301;DHT22;59099;48.806;9.160;2022-10-19T11:10:54;18.60;99.90
1301;DHT22;59099;48.806;9.160;2022-10-19T11:13:52;18.70;99.90
1301;DHT22;59099;48.806;9.160;2022-10-19T11:16:23;18.80;99.90
1301;DHT22;59099;48.806;9.160;2022-10-19T11:18:54;18.80;99.90
1301;DHT22;59099;48.806;9.160;2022-10-19T11:21:45;18.80;99.90
1301;DHT22;59099;48.806;9.160;2022-10-19T11:27:18;18.60;99.90
1301;DHT22;59099;48.806;9.160;2022-10-19T11:35:20;18.70;99.90
1301;DHT22;59099;48.806;9.160;2022-10-19T11:40:46;18.90;99.90
1301;DHT22;59099;48.806;9.160;2022-10-19T11:43:27;19.10;99.90
1301;DHT22;59099;48.806;9.160;2022-10-19T11:46:25;19.30;99.90
1301;DHT22;59099;48.806;9.160;2022-10-19T11:51:49;19.90;99.90
1301;DHT22;59099;48.806;9.160;2022-10-19T11:54:33;19.90;99.90
1301;DHT22;59099;48.806;9.160;2022-10-19T11:57:12;20.20;99.90
1301;DHT22;59099;48.806;9.160;2022-10-19T11:59:47;20.40;99.90
1301;DHT22;59099;48.806;9.160;2022-10-19T12:05:23;20.80;99.90
1301;DHT22;59099;48.806;9.160;2022-10-19T12:07:55;20.30;99.90
1301;DHT22;59099;48.806;9.160;2022-10-19T12:13:07;20.20;99.90
1301;DHT22;59099;48.806;9.160;2022-10-19T12:15:38;20.30;99.90
1301;DHT22;59099;48.806;9.160;2022-10-19T12:20:57;20.70;99.90
1301;DHT22;59099;48.806;9.160;2022-10-19T12:23:38;20.90;99.90
1301;DHT22;59099;48.806;9.160;2022-10-19T12:26:13;21.00;99.90
1301;DHT22;59099;48.806;9.160;2022-10-19T12:28:52;21.00;99.90
1301;DHT22;59099;48.806;9.160;2022-10-19T12:31:22;21.20;99.90
1301;DHT22;59099;48.806;9.160;2022-10-19T12:45:23;26.60;99.90
1301;DHT22;59099;48.806;9.160;2022-10-19T12:48:15;26.20;99.90
1301;DHT22;59099;48.806;9.160;2022-10-19T12:53:33;25.80;99.90
1301;DHT22;59099;48.806;9.160;2022-10-19T13:01:23;26.30;99.90
1301;DHT22;59099;48.806;9.160;2022-10-19T13:06:59;26.00;99.90
1301;DHT22;59099;48.806;9.160;2022-10-19T13:09:41;26.10;99.90
1301;DHT22;59099;48.806;9.160;2022-10-19T13:25:43;23.50;99.90
1301;DHT22;59099;48.806;9.160;2022-10-19T13:38:28;23.60;99.90
1301;DHT22;59099;48.806;9.160;2022-10-19T13:41:05;24.50;99.90
1301;DHT22;59099;48.806;9.160;2022-10-19T13:46:15;24.60;99.90
1301;DHT22;59099;48.806;9.160;2022-10-19T13:49:10;24.60;99.90
1301;DHT22;59099;48.806;9.160;2022-10-19T13:57:28;24.00;99.90
1301;DHT22;59099;48.806;9.160;2022-10-19T14:10:41;25.80;99.90
1301;DHT22;59099;48.806;9.160;2022-10-19T14:13:13;25.50;99.90
1301;DHT22;59099;48.806;9.160;2022-10-19T14:15:52;25.30;99.90
1301;DHT22;59099;48.806;9.160;2022-10-19T14:18:27;25.60;99.90
1301;DHT22;59099;48.806;9.160;2022-10-19T14:21:02;26.00;99.90
1301;DHT22;59099;48.806;9.160;2022-10-19T14:23:37;26.10;99.90
1301;DHT22;59099;48.806;9.160;2022-10-19T14:26:12;26.50;99.90
1301;DHT22;59099;48.806;9.160;2022-10-19T14:28:39;26.90;99.90
1301;DHT22;59099;48.806;9.160;2022-10-19T14:31:10;26.30;99.90
1301;DHT22;59099;48.806;9.160;2022-10-19T14:33:38;26.00;99.90
1301;DHT22;59099;48.806;9.160;2022-10-19T14:36:16;25.60;99.90
1301;DHT22;59099;48.806;9.160;2022-10-19T14:38:42;25.10;99.90
1301;DHT22;59099;48.806;9.160;2022-10-19T14:43:59;25.00;99.90
1301;DHT22;59099;48.806;9.160;2022-10-19T14:46:32;24.70;99.90
1301;DHT22;59099;48.806;9.160;2022-10-19T14:49:04;23.90;99.90
1301;DHT22;59099;48.806;9.160;2022-10-19T14:51:50;23.80;99.90
1301;DHT22;59099;48.806;9.160;2022-10-19T14:54:40;23.80;99.90
1301;DHT22;59099;48.806;9.160;2022-10-19T14:57:27;23.70;99.90
1301;DHT22;59099;48.806;9.160;2022-10-19T15:00:18;23.80;99.90
1301;DHT22;59099;48.806;9.160;2022-10-19T15:02:57;23.90;99.90
1301;DHT22;59099;48.806;9.160;2022-10-19T15:05:35;24.50;99.90
1301;DHT22;59099;48.806;9.160;2022-10-19T15:08:37;24.90;99.90
1301;DHT22;59099;48.806;9.160;2022-10-19T15:11:19;24.70;99.90
1301;DHT22;59099;48.806;9.160;2022-10-19T15:13:46;24.00;99.90
1301;DHT22;59099;48.806;9.160;2022-10-19T15:16:41;23.90;99.90
1301;DHT22;59099;48.806;9.160;2022-10-19T15:21:46;23.30;99.90
1301;DHT22;59099;48.806;9.160;2022-10-19T15:24:25;22.70;99.90
1301;DHT22;59099;48.806;9.160;2022-10-19T15:26:52;22.00;99.90
1301;DHT22;59099;48.806;9.160;2022-10-19T15:29:22;21.80;99.90
1301;DHT22;59099;48.806;9.160;2022-10-19T15:32:14;21.70;99.90
1301;DHT22;59099;48.806;9.160;2022-10-19T15:34:44;21.20;99.90
1301;DHT22;59099;48.806;9.160;2022-10-19T15:37:20;21.10;99.90
1301;DHT22;59099;48.806;9.160;2022-10-19T15:39:46;21.10;99.90
1301;DHT22;59099;48.806;9.160;2022-10-19T15:42:41;21.30;99.90
1301;DHT22;59099;48.806;9.160;2022-10-19T15:45:37;21.10;99.90
1301;DHT22;59099;48.806;9.160;2022-10-19T15:50:42;20.50;99.90
1301;DHT22;59099;48.806;9.160;2022-10-19T15:53:11;20.10;99.90
1301;DHT22;59099;48.806;9.160;2022-10-19T15:58:12;19.40;99.90
1301;DHT22;59099;48.806;9.160;2022-10-19T16:00:38;19.10;99.90
1301;DHT22;59099;48.806;9.160;2022-10-19T16:03:04;19.10;99.90
1301;DHT22;59099;48.806;9.160;2022-10-19T16:05:34;19.00;99.90
1301;DHT22;59099;48.806;9.160;2022-10-19T16:08:04;18.90;99.90
1301;DHT22;59099;48.806;9.160;2022-10-19T16:10:30;18.90;99.90
1301;DHT22;59099;48.806;9.160;2022-10-19T16:12:56;18.80;99.90
1301;DHT22;59099;48.806;9.160;2022-10-19T16:15:22;18.70;99.90
1301;DHT22;59099;48.806;9.160;2022-10-19T16:17:56;18.70;99.90
1301;DHT22;59099;48.806;9.160;2022-10-19T16:20:23;18.50;99.90
1301;DHT22;59099;48.806;9.160;2022-10-19T16:22:50;18.40;99.90
1301;DHT22;59099;48.806;9.160;2022-10-19T16:25:16;18.30;99.90
1301;DHT22;59099;48.806;9.160;2022-10-19T16:27:42;18.20;99.90
1301;DHT22;59099;48.806;9.160;2022-10-19T16:30:13;18.10;99.90
1301;DHT22;59099;48.806;9.160;2022-10-19T16:32:40;17.90;99.90
1301;DHT22;59099;48.806;9.160;2022-10-19T16:35:07;17.80;99.90
1301;DHT22;59099;48.806;9.160;2022-10-19T16:37:34;17.80;99.90
1301;DHT22;59099;48.806;9.160;2022-10-19T16:40:00;17.60;99.90
1301;DHT22;59099;48.806;9.160;2022-10-19T16:42:25;17.50;99.90
1301;DHT22;59099;48.806;9.160;2022-10-19T16:44:51;17.40;99.90
1301;DHT22;59099;48.806;9.160;2022-10-19T16:47:18;17.40;99.90
1301;DHT22;59099;48.806;9.160;2022-10-19T16:49:44;17.20;99.90
1301;DHT22;59099;48.806;9.160;2022-10-19T16:52:13;17.10;99.90
1301;DHT22;59099;48.806;9.160;2022-10-19T16:54:39;17.10;99.90
1301;DHT22;59099;48.806;9.160;2022-10-19T16:57:05;16.90;99.90
1301;DHT22;59099;48.806;9.160;2022-10-19T16:59:30;16.90;99.90
1301;DHT22;59099;48.806;9.160;2022-10-19T17:02:00;16.60;99.90
1301;DHT22;59099;48.806;9.160;2022-10-19T17:04:25;16.60;99.90
1301;DHT22;59099;48.806;9.160;2022-10-19T17:06:51;16.40;99.90
1301;DHT22;59099;48.806;9.160;2022-10-19T17:09:17;16.20;99.90
1301;DHT22;59099;48.806;9.160;2022-10-19T17:11:43;16.10;99.90
1301;DHT22;59099;48.806;9.160;2022-10-19T17:14:10;16.00;99.90
1301;DHT22;59099;48.806;9.160;2022-10-19T17:16:37;16.00;99.90
1301;DHT22;59099;48.806;9.160;2022-10-19T17:19:03;15.80;99.90
1301;DHT22;59099;48.806;9.160;2022-10-19T17:21:32;15.80;99.90
1301;DHT22;59099;48.806;9.160;2022-10-19T17:24:01;15.80;99.90
1301;DHT22;59099;48.806;9.160;2022-10-19T17:28:57;15.50;99.90
1301;DHT22;59099;48.806;9.160;2022-10-19T17:31:24;15.50;99.90
1301;DHT22;59099;48.806;9.160;2022-10-19T17:33:57;15.40;99.90
1301;DHT22;59099;48.806;9.160;2022-10-19T17:36:27;15.40;99.90
1301;DHT22;59099;48.806;9.160;2022-10-19T17:38:56;15.30;99.90
1301;DHT22;59099;48.806;9.160;2022-10-19T17:41:23;15.30;99.90
1301;DHT22;59099;48.806;9.160;2022-10-19T17:43:50;15.20;99.90
1301;DHT22;59099;48.806;9.160;2022-10-19T17:46:17;15.20;99.90
1301;DHT22;59099;48.806;9.160;2022-10-19T17:48:47;15.10;99.90
1301;DHT22;59099;48.806;9.160;2022-10-19T17:51:15;15.00;99.90
1301;DHT22;59099;48.806;9.160;2022-10-19T17:53:45;15.00;99.90
1301;DHT22;59099;48.806;9.160;2022-10-19T17:56:13;14.90;99.90
1301;DHT22;59099;48.806;9.160;2022-10-19T17:58:41;14.90;99.90
1301;DHT22;59099;48.806;9.160;2022-10-19T18:01:09;14.90;99.90
1301;DHT22;59099;48.806;9.160;2022-10-19T18:03:36;14.90;99.90
1301;DHT22;59099;48.806;9.160;2022-10-19T18:08:36;15.00;99.90
1301;DHT22;59099;48.806;9.160;2022-10-19T18:11:05;14.90;99.90
1301;DHT22;59099;48.806;9.160;2022-10-19T18:13:34;14.80;99.90
1301;DHT22;59099;48.806;9.160;2022-10-19T18:16:08;14.90;99.90
1301;DHT22;59099;48.806;9.160;2022-10-19T18:18:35;14.90;99.90
1301;DHT22;59099;48.806;9.160;2022-10-19T18:21:07;14.80;99.90
1301;DHT22;59099;48.806;9.160;2022-10-19T18:23:34;14.70;99.90
1301;DHT22;59099;48.806;9.160;2022-10-19T18:26:03;14.50;99.90
1301;DHT22;59099;48.806;9.160;2022-10-19T18:28:30;14.50;99.90
1301;DHT22;59099;48.806;9.160;2022-10-19T18:31:04;14.40;99.90
1301;DHT22;59099;48.806;9.160;2022-10-19T18:33:30;14.40;99.90
1301;DHT22;59099;48.806;9.160;2022-10-19T18:35:57;14.30;99.90
1301;DHT22;59099;48.806;9.160;2022-10-19T18:38:23;14.40;99.90
1301;DHT22;59099;48.806;9.160;2022-10-19T18:40:49;14.20;99.90
1301;DHT22;59099;48.806;9.160;2022-10-19T18:43:15;14.20;99.90
1301;DHT22;59099;48.806;9.160;2022-10-19T18:46:01;14.20;99.90
1301;DHT22;59099;48.806;9.160;2022-10-19T18:48:28;14.20;99.90
1301;DHT22;59099;48.806;9.160;2022-10-19T18:50:55;14.10;99.90
1301;DHT22;59099;48.806;9.160;2022-10-19T18:53:22;14.10;99.90
1301;DHT22;59099;48.806;9.160;2022-10-19T18:56:02;14.00;99.90
1301;DHT22;59099;48.806;9.160;2022-10-19T18:58:28;13.90;99.90
1301;DHT22;59099;48.806;9.160;2022-10-19T19:01:13;13.80;99.90
1301;DHT22;59099;48.806;9.160;2022-10-19T19:03:41;13.80;99.90
1301;DHT22;59099;48.806;9.160;2022-10-19T19:06:09;13.70;99.90
1301;DHT22;59099;48.806;9.160;2022-10-19T19:08:36;13.60;99.90
1301;DHT22;59099;48.806;9.160;2022-10-19T19:11:20;13.60;99.90
1301;DHT22;59099;48.806;9.160;2022-10-19T19:16:48;13.60;99.90
1301;DHT22;59099;48.806;9.160;2022-10-19T19:19:15;13.50;99.90
1301;DHT22;59099;48.806;9.160;2022-10-19T19:21:48;13.50;99.90